sensor_id;sensor_type;location;lat;lon;timestamp;P1;durP1;ratioP1;P2;durP2;ratioP2
51758;SDS011;66684;47.568;18.734;2024-03-06T00:02:24;50.05;;;31.12;;
51758;SDS011;66684;47.568;18.734;2024-03-06T00:04:50;54.17;;;30.60;;
51758;SDS011;66684;47.568;18.734;2024-03-06T00:07:16;50.60;;;30.05;;
51758;SDS011;66684;47.568;18.734;2024-03-06T00:09:42;48.53;;;30.92;;
51758;SDS011;66684;47.568;18.734;2024-03-06T00:12:08;51.58;;;32.13;;
51758;SDS011;66684;47.568;18.734;2024-03-06T00:14:34;53.15;;;32.08;;
51758;SDS011;66684;47.568;18.734;2024-03-06T00:17:02;53.90;;;31.73;;
51758;SDS011;66684;47.568;18.734;2024-03-06T00:19:32;53.10;;;32.88;;
51758;SDS011;66684;47.568;18.734;2024-03-06T00:21:59;51.65;;;31.10;;
51758;SDS011;66684;47.568;18.734;2024-03-06T00:24:26;53.20;;;32.20;;
51758;SDS011;66684;47.568;18.734;2024-03-06T00:26:52;53.20;;;32.10;;
51758;SDS011;66684;47.568;18.734;2024-03-06T00:29:19;49.83;;;32.03;;
51758;SDS011;66684;47.568;18.734;2024-03-06T00:31:45;55.67;;;33.80;;
51758;SDS011;66684;47.568;18.734;2024-03-06T00:34:12;54.70;;;33.70;;
51758;SDS011;66684;47.568;18.734;2024-03-06T00:36:41;59.25;;;35.13;;
51758;SDS011;66684;47.568;18.734;2024-03-06T00:39:09;58.40;;;33.40;;
51758;SDS011;66684;47.568;18.734;2024-03-06T00:41:35;58.17;;;34.65;;
51758;SDS011;66684;47.568;18.734;2024-03-06T00:44:01;59.53;;;34.90;;
51758;SDS011;66684;47.568;18.734;2024-03-06T00:46:28;55.45;;;34.03;;
51758;SDS011;66684;47.568;18.734;2024-03-06T00:48:54;58.55;;;34.72;;
51758;SDS011;66684;47.568;18.734;2024-03-06T00:51:19;58.75;;;34.47;;
51758;SDS011;66684;47.568;18.734;2024-03-06T00:53:45;58.17;;;34.10;;
51758;SDS011;66684;47.568;18.734;2024-03-06T00:56:11;62.65;;;35.03;;
51758;SDS011;66684;47.568;18.734;2024-03-06T00:58:37;59.83;;;34.83;;
51758;SDS011;66684;47.568;18.734;2024-03-06T01:01:03;64.60;;;36.22;;
51758;SDS011;66684;47.568;18.734;2024-03-06T01:03:29;63.35;;;36.28;;
51758;SDS011;66684;47.568;18.734;2024-03-06T01:05:55;62.80;;;34.35;;
51758;SDS011;66684;47.568;18.734;2024-03-06T01:08:22;62.58;;;34.30;;
51758;SDS011;66684;47.568;18.734;2024-03-06T01:10:50;52.45;;;31.73;;
51758;SDS011;66684;47.568;18.734;2024-03-06T01:13:17;55.95;;;33.40;;
51758;SDS011;66684;47.568;18.734;2024-03-06T01:15:44;56.35;;;33.35;;
51758;SDS011;66684;47.568;18.734;2024-03-06T01:18:10;56.45;;;33.80;;
51758;SDS011;66684;47.568;18.734;2024-03-06T01:20:36;53.40;;;32.03;;
51758;SDS011;66684;47.568;18.734;2024-03-06T01:23:03;55.22;;;33.70;;
51758;SDS011;66684;47.568;18.734;2024-03-06T01:25:29;57.30;;;33.45;;
51758;SDS011;66684;47.568;18.734;2024-03-06T01:27:55;54.47;;;32.97;;
51758;SDS011;66684;47.568;18.734;2024-03-06T01:30:21;55.63;;;32.60;;
51758;SDS011;66684;47.568;18.734;2024-03-06T01:32:46;55.60;;;33.60;;
51758;SDS011;66684;47.568;18.734;2024-03-06T01:35:12;57.10;;;33.97;;
51758;SDS011;66684;47.568;18.734;2024-03-06T01:37:38;53.95;;;33.13;;
51758;SDS011;66684;47.568;18.734;2024-03-06T01:40:04;52.58;;;32.05;;
51758;SDS011;66684;47.568;18.734;2024-03-06T01:42:31;54.85;;;33.55;;
51758;SDS011;66684;47.568;18.734;2024-03-06T01:44:56;55.95;;;32.95;;
51758;SDS011;66684;47.568;18.734;2024-03-06T01:47:22;55.88;;;32.97;;
51758;SDS011;66684;47.568;18.734;2024-03-06T01:49:48;56.33;;;33.28;;
51758;SDS011;66684;47.568;18.734;2024-03-06T01:52:15;54.63;;;33.25;;
51758;SDS011;66684;47.568;18.734;2024-03-06T01:54:43;54.25;;;33.03;;
51758;SDS011;66684;47.568;18.734;2024-03-06T01:57:10;60.95;;;34.80;;
51758;SDS011;66684;47.568;18.734;2024-03-06T01:59:39;63.17;;;35.25;;
51758;SDS011;66684;47.568;18.734;2024-03-06T02:02:05;62.70;;;35.47;;
51758;SDS011;66684;47.568;18.734;2024-03-06T02:04:33;61.22;;;34.33;;
51758;SDS011;66684;47.568;18.734;2024-03-06T02:06:59;55.50;;;34.45;;
51758;SDS011;66684;47.568;18.734;2024-03-06T02:09:26;58.97;;;34.20;;
51758;SDS011;66684;47.568;18.734;2024-03-06T02:11:52;61.55;;;36.08;;
51758;SDS011;66684;47.568;18.734;2024-03-06T02:14:17;59.33;;;34.40;;
51758;SDS011;66684;47.568;18.734;2024-03-06T02:16:44;56.15;;;34.50;;
51758;SDS011;66684;47.568;18.734;2024-03-06T02:19:09;52.55;;;33.03;;
51758;SDS011;66684;47.568;18.734;2024-03-06T02:21:35;53.65;;;32.08;;
51758;SDS011;66684;47.568;18.734;2024-03-06T02:24:01;58.72;;;34.60;;
51758;SDS011;66684;47.568;18.734;2024-03-06T02:26:28;56.72;;;32.38;;
51758;SDS011;66684;47.568;18.734;2024-03-06T02:28:54;55.25;;;33.38;;
51758;SDS011;66684;47.568;18.734;2024-03-06T02:31:20;58.80;;;34.97;;
51758;SDS011;66684;47.568;18.734;2024-03-06T02:33:47;53.85;;;33.15;;
51758;SDS011;66684;47.568;18.734;2024-03-06T02:36:14;59.42;;;32.97;;
51758;SDS011;66684;47.568;18.734;2024-03-06T02:38:43;54.55;;;32.65;;
51758;SDS011;66684;47.568;18.734;2024-03-06T02:41:10;51.63;;;30.42;;
51758;SDS011;66684;47.568;18.734;2024-03-06T02:43:37;54.28;;;31.90;;
51758;SDS011;66684;47.568;18.734;2024-03-06T02:46:03;51.83;;;31.58;;
51758;SDS011;66684;47.568;18.734;2024-03-06T02:48:30;51.65;;;31.05;;
51758;SDS011;66684;47.568;18.734;2024-03-06T02:50:56;51.58;;;30.08;;
51758;SDS011;66684;47.568;18.734;2024-03-06T02:53:22;55.95;;;32.50;;
51758;SDS011;66684;47.568;18.734;2024-03-06T02:55:48;56.08;;;32.63;;
51758;SDS011;66684;47.568;18.734;2024-03-06T02:58:15;59.83;;;34.95;;
51758;SDS011;66684;47.568;18.734;2024-03-06T03:00:42;62.90;;;36.63;;
51758;SDS011;66684;47.568;18.734;2024-03-06T03:03:09;67.57;;;36.83;;
51758;SDS011;66684;47.568;18.734;2024-03-06T03:05:37;59.90;;;33.13;;
51758;SDS011;66684;47.568;18.734;2024-03-06T03:08:05;57.53;;;33.83;;
51758;SDS011;66684;47.568;18.734;2024-03-06T03:10:31;61.00;;;34.05;;
51758;SDS011;66684;47.568;18.734;2024-03-06T03:13:00;60.10;;;33.78;;
51758;SDS011;66684;47.568;18.734;2024-03-06T03:15:26;57.72;;;34.00;;
51758;SDS011;66684;47.568;18.734;2024-03-06T03:17:52;58.67;;;33.33;;
51758;SDS011;66684;47.568;18.734;2024-03-06T03:20:18;57.55;;;33.78;;
51758;SDS011;66684;47.568;18.734;2024-03-06T03:22:44;59.60;;;32.90;;
51758;SDS011;66684;47.568;18.734;2024-03-06T03:25:10;60.97;;;34.05;;
51758;SDS011;66684;47.568;18.734;2024-03-06T03:27:37;57.10;;;33.80;;
51758;SDS011;66684;47.568;18.734;2024-03-06T03:30:08;63.83;;;33.85;;
51758;SDS011;66684;47.568;18.734;2024-03-06T03:32:35;53.40;;;32.35;;
51758;SDS011;66684;47.568;18.734;2024-03-06T03:35:02;55.40;;;32.35;;
51758;SDS011;66684;47.568;18.734;2024-03-06T03:37:29;53.65;;;31.12;;
51758;SDS011;66684;47.568;18.734;2024-03-06T03:39:55;51.42;;;30.50;;
51758;SDS011;66684;47.568;18.734;2024-03-06T03:42:21;53.30;;;31.15;;
51758;SDS011;66684;47.568;18.734;2024-03-06T03:44:47;50.12;;;29.98;;
51758;SDS011;66684;47.568;18.734;2024-03-06T03:47:13;54.88;;;32.20;;
51758;SDS011;66684;47.568;18.734;2024-03-06T03:49:38;55.00;;;31.80;;
51758;SDS011;66684;47.568;18.734;2024-03-06T03:52:05;57.17;;;33.28;;
51758;SDS011;66684;47.568;18.734;2024-03-06T03:54:31;57.28;;;31.95;;
51758;SDS011;66684;47.568;18.734;2024-03-06T03:56:57;51.63;;;31.67;;
51758;SDS011;66684;47.568;18.734;2024-03-06T03:59:24;53.95;;;31.65;;
51758;SDS011;66684;47.568;18.734;2024-03-06T04:01:51;55.88;;;31.67;;
51758;SDS011;66684;47.568;18.734;2024-03-06T04:04:17;55.70;;;32.28;;
51758;SDS011;66684;47.568;18.734;2024-03-06T04:06:43;57.25;;;31.65;;
51758;SDS011;66684;47.568;18.734;2024-03-06T04:09:09;60.20;;;33.45;;
51758;SDS011;66684;47.568;18.734;2024-03-06T04:11:40;59.42;;;32.60;;
51758;SDS011;66684;47.568;18.734;2024-03-06T04:14:06;58.47;;;33.65;;
51758;SDS011;66684;47.568;18.734;2024-03-06T04:16:33;57.88;;;31.98;;
51758;SDS011;66684;47.568;18.734;2024-03-06T04:18:59;56.22;;;31.37;;
51758;SDS011;66684;47.568;18.734;2024-03-06T04:21:26;52.40;;;31.10;;
51758;SDS011;66684;47.568;18.734;2024-03-06T04:23:52;52.90;;;30.25;;
51758;SDS011;66684;47.568;18.734;2024-03-06T04:26:18;51.55;;;31.45;;
51758;SDS011;66684;47.568;18.734;2024-03-06T04:28:44;53.78;;;31.35;;
51758;SDS011;66684;47.568;18.734;2024-03-06T04:31:10;56.42;;;30.17;;
51758;SDS011;66684;47.568;18.734;2024-03-06T04:33:36;57.60;;;31.75;;
51758;SDS011;66684;47.568;18.734;2024-03-06T04:36:02;54.85;;;31.15;;
51758;SDS011;66684;47.568;18.734;2024-03-06T04:38:31;60.35;;;33.17;;
51758;SDS011;66684;47.568;18.734;2024-03-06T04:40:57;60.58;;;34.75;;
51758;SDS011;66684;47.568;18.734;2024-03-06T04:43:23;62.97;;;34.85;;
51758;SDS011;66684;47.568;18.734;2024-03-06T04:45:49;65.87;;;36.72;;
51758;SDS011;66684;47.568;18.734;2024-03-06T04:48:15;65.07;;;36.72;;
51758;SDS011;66684;47.568;18.734;2024-03-06T04:50:41;64.55;;;37.15;;
51758;SDS011;66684;47.568;18.734;2024-03-06T04:53:07;68.30;;;36.35;;
51758;SDS011;66684;47.568;18.734;2024-03-06T04:55:33;62.83;;;35.92;;
51758;SDS011;66684;47.568;18.734;2024-03-06T04:58:02;59.78;;;35.03;;
51758;SDS011;66684;47.568;18.734;2024-03-06T05:00:29;60.55;;;34.53;;
51758;SDS011;66684;47.568;18.734;2024-03-06T05:02:55;60.60;;;34.55;;
51758;SDS011;66684;47.568;18.734;2024-03-06T05:05:21;60.08;;;34.80;;
51758;SDS011;66684;47.568;18.734;2024-03-06T05:07:48;66.90;;;35.72;;
51758;SDS011;66684;47.568;18.734;2024-03-06T05:10:14;60.28;;;34.08;;
51758;SDS011;66684;47.568;18.734;2024-03-06T05:12:41;64.68;;;34.70;;
51758;SDS011;66684;47.568;18.734;2024-03-06T05:15:08;57.92;;;33.53;;
51758;SDS011;66684;47.568;18.734;2024-03-06T05:17:34;56.08;;;32.97;;
51758;SDS011;66684;47.568;18.734;2024-03-06T05:20:00;59.85;;;33.80;;
51758;SDS011;66684;47.568;18.734;2024-03-06T05:22:26;62.17;;;35.58;;
51758;SDS011;66684;47.568;18.734;2024-03-06T05:24:52;61.88;;;34.65;;
51758;SDS011;66684;47.568;18.734;2024-03-06T05:27:18;61.88;;;34.70;;
51758;SDS011;66684;47.568;18.734;2024-03-06T05:29:44;57.95;;;33.25;;
51758;SDS011;66684;47.568;18.734;2024-03-06T05:32:10;58.72;;;33.75;;
51758;SDS011;66684;47.568;18.734;2024-03-06T05:34:36;60.15;;;33.33;;
51758;SDS011;66684;47.568;18.734;2024-03-06T05:37:02;56.30;;;34.70;;
51758;SDS011;66684;47.568;18.734;2024-03-06T05:39:31;58.83;;;33.00;;
51758;SDS011;66684;47.568;18.734;2024-03-06T05:42:00;62.65;;;33.88;;
51758;SDS011;66684;47.568;18.734;2024-03-06T05:44:30;59.35;;;33.38;;
51758;SDS011;66684;47.568;18.734;2024-03-06T05:46:57;63.17;;;34.75;;
51758;SDS011;66684;47.568;18.734;2024-03-06T05:49:24;67.90;;;36.30;;
51758;SDS011;66684;47.568;18.734;2024-03-06T05:51:51;66.87;;;36.17;;
51758;SDS011;66684;47.568;18.734;2024-03-06T05:54:16;61.72;;;34.65;;
51758;SDS011;66684;47.568;18.734;2024-03-06T05:56:42;62.38;;;35.97;;
51758;SDS011;66684;47.568;18.734;2024-03-06T05:59:08;59.45;;;34.38;;
51758;SDS011;66684;47.568;18.734;2024-03-06T06:01:34;58.53;;;34.42;;
51758;SDS011;66684;47.568;18.734;2024-03-06T06:04:00;53.33;;;32.13;;
51758;SDS011;66684;47.568;18.734;2024-03-06T06:06:27;56.33;;;32.30;;
51758;SDS011;66684;47.568;18.734;2024-03-06T06:08:53;51.15;;;30.27;;
51758;SDS011;66684;47.568;18.734;2024-03-06T06:11:19;58.10;;;33.97;;
51758;SDS011;66684;47.568;18.734;2024-03-06T06:13:45;58.70;;;35.00;;
51758;SDS011;66684;47.568;18.734;2024-03-06T06:16:11;56.15;;;33.95;;
51758;SDS011;66684;47.568;18.734;2024-03-06T06:18:39;56.67;;;32.22;;
51758;SDS011;66684;47.568;18.734;2024-03-06T06:21:07;56.20;;;33.72;;
51758;SDS011;66684;47.568;18.734;2024-03-06T06:23:34;53.80;;;31.25;;
51758;SDS011;66684;47.568;18.734;2024-03-06T06:26:00;57.40;;;33.20;;
51758;SDS011;66684;47.568;18.734;2024-03-06T06:28:26;55.05;;;31.85;;
51758;SDS011;66684;47.568;18.734;2024-03-06T06:30:52;48.13;;;30.60;;
51758;SDS011;66684;47.568;18.734;2024-03-06T06:33:18;64.22;;;38.95;;
51758;SDS011;66684;47.568;18.734;2024-03-06T06:35:44;69.00;;;43.40;;
51758;SDS011;66684;47.568;18.734;2024-03-06T06:38:10;48.45;;;30.55;;
51758;SDS011;66684;47.568;18.734;2024-03-06T06:40:36;46.53;;;29.27;;
51758;SDS011;66684;47.568;18.734;2024-03-06T06:43:02;48.67;;;28.67;;
51758;SDS011;66684;47.568;18.734;2024-03-06T06:45:28;45.22;;;27.87;;
51758;SDS011;66684;47.568;18.734;2024-03-06T06:47:54;44.40;;;27.13;;
51758;SDS011;66684;47.568;18.734;2024-03-06T06:50:20;40.72;;;26.33;;
51758;SDS011;66684;47.568;18.734;2024-03-06T06:52:51;43.40;;;28.17;;
51758;SDS011;66684;47.568;18.734;2024-03-06T06:55:17;45.45;;;28.55;;
51758;SDS011;66684;47.568;18.734;2024-03-06T06:57:43;47.58;;;28.77;;
51758;SDS011;66684;47.568;18.734;2024-03-06T07:00:09;52.92;;;30.52;;
51758;SDS011;66684;47.568;18.734;2024-03-06T07:02:39;53.00;;;30.65;;
51758;SDS011;66684;47.568;18.734;2024-03-06T07:05:06;51.58;;;31.45;;
51758;SDS011;66684;47.568;18.734;2024-03-06T07:07:33;51.05;;;30.37;;
51758;SDS011;66684;47.568;18.734;2024-03-06T07:10:01;50.72;;;30.88;;
51758;SDS011;66684;47.568;18.734;2024-03-06T07:12:28;47.92;;;29.42;;
51758;SDS011;66684;47.568;18.734;2024-03-06T07:14:54;53.60;;;30.52;;
51758;SDS011;66684;47.568;18.734;2024-03-06T07:17:20;47.33;;;30.25;;
51758;SDS011;66684;47.568;18.734;2024-03-06T07:19:45;50.70;;;30.33;;
51758;SDS011;66684;47.568;18.734;2024-03-06T07:22:12;44.08;;;29.10;;
51758;SDS011;66684;47.568;18.734;2024-03-06T07:24:38;44.17;;;27.92;;
51758;SDS011;66684;47.568;18.734;2024-03-06T07:27:04;47.72;;;29.35;;
51758;SDS011;66684;47.568;18.734;2024-03-06T07:29:30;45.65;;;29.40;;
51758;SDS011;66684;47.568;18.734;2024-03-06T07:31:56;43.67;;;27.65;;
51758;SDS011;66684;47.568;18.734;2024-03-06T07:34:22;42.40;;;29.02;;
51758;SDS011;66684;47.568;18.734;2024-03-06T07:36:48;45.50;;;29.05;;
51758;SDS011;66684;47.568;18.734;2024-03-06T07:39:19;46.95;;;29.58;;
51758;SDS011;66684;47.568;18.734;2024-03-06T07:41:45;46.50;;;29.10;;
51758;SDS011;66684;47.568;18.734;2024-03-06T07:44:11;44.30;;;29.27;;
51758;SDS011;66684;47.568;18.734;2024-03-06T07:46:37;42.58;;;28.08;;
51758;SDS011;66684;47.568;18.734;2024-03-06T07:49:03;44.30;;;29.20;;
51758;SDS011;66684;47.568;18.734;2024-03-06T07:51:30;46.53;;;29.65;;
51758;SDS011;66684;47.568;18.734;2024-03-06T07:53:57;50.03;;;29.20;;
51758;SDS011;66684;47.568;18.734;2024-03-06T07:56:27;45.88;;;28.42;;
51758;SDS011;66684;47.568;18.734;2024-03-06T07:58:53;46.60;;;29.80;;
51758;SDS011;66684;47.568;18.734;2024-03-06T08:01:20;50.25;;;30.45;;
51758;SDS011;66684;47.568;18.734;2024-03-06T08:03:46;51.63;;;32.28;;
51758;SDS011;66684;47.568;18.734;2024-03-06T08:06:12;54.40;;;35.35;;
51758;SDS011;66684;47.568;18.734;2024-03-06T08:08:41;66.07;;;37.58;;
51758;SDS011;66684;47.568;18.734;2024-03-06T08:11:15;58.08;;;38.13;;
51758;SDS011;66684;47.568;18.734;2024-03-06T08:13:41;49.55;;;31.85;;
51758;SDS011;66684;47.568;18.734;2024-03-06T08:16:07;68.20;;;39.05;;
51758;SDS011;66684;47.568;18.734;2024-03-06T08:18:34;53.58;;;33.70;;
51758;SDS011;66684;47.568;18.734;2024-03-06T08:21:01;59.95;;;37.70;;
51758;SDS011;66684;47.568;18.734;2024-03-06T08:23:27;91.78;;;55.50;;
51758;SDS011;66684;47.568;18.734;2024-03-06T08:25:53;81.00;;;47.38;;
51758;SDS011;66684;47.568;18.734;2024-03-06T08:28:19;55.40;;;35.85;;
51758;SDS011;66684;47.568;18.734;2024-03-06T08:30:45;52.40;;;32.33;;
51758;SDS011;66684;47.568;18.734;2024-03-06T08:33:11;61.75;;;35.45;;
51758;SDS011;66684;47.568;18.734;2024-03-06T08:35:37;59.35;;;37.58;;
51758;SDS011;66684;47.568;18.734;2024-03-06T08:38:03;48.63;;;32.25;;
51758;SDS011;66684;47.568;18.734;2024-03-06T08:40:29;47.38;;;30.62;;
51758;SDS011;66684;47.568;18.734;2024-03-06T08:42:55;46.28;;;32.10;;
51758;SDS011;66684;47.568;18.734;2024-03-06T08:45:21;44.35;;;27.83;;
51758;SDS011;66684;47.568;18.734;2024-03-06T08:47:50;45.42;;;27.40;;
51758;SDS011;66684;47.568;18.734;2024-03-06T08:50:19;43.55;;;28.25;;
51758;SDS011;66684;47.568;18.734;2024-03-06T08:52:45;40.65;;;27.05;;
51758;SDS011;66684;47.568;18.734;2024-03-06T08:55:12;38.17;;;25.83;;
51758;SDS011;66684;47.568;18.734;2024-03-06T08:57:38;36.88;;;26.15;;
51758;SDS011;66684;47.568;18.734;2024-03-06T09:00:05;34.33;;;24.23;;
51758;SDS011;66684;47.568;18.734;2024-03-06T09:02:36;36.92;;;23.38;;
51758;SDS011;66684;47.568;18.734;2024-03-06T09:05:06;34.33;;;24.20;;
51758;SDS011;66684;47.568;18.734;2024-03-06T09:07:34;34.67;;;23.95;;
51758;SDS011;66684;47.568;18.734;2024-03-06T09:10:04;33.30;;;23.60;;
51758;SDS011;66684;47.568;18.734;2024-03-06T09:12:31;32.38;;;21.42;;
51758;SDS011;66684;47.568;18.734;2024-03-06T09:14:57;34.50;;;23.55;;
51758;SDS011;66684;47.568;18.734;2024-03-06T09:17:23;35.72;;;23.90;;
51758;SDS011;66684;47.568;18.734;2024-03-06T09:19:48;34.97;;;24.25;;
51758;SDS011;66684;47.568;18.734;2024-03-06T09:22:14;32.78;;;23.35;;
51758;SDS011;66684;47.568;18.734;2024-03-06T09:24:40;35.78;;;23.30;;
51758;SDS011;66684;47.568;18.734;2024-03-06T09:27:06;34.78;;;24.20;;
51758;SDS011;66684;47.568;18.734;2024-03-06T09:29:32;35.97;;;24.02;;
51758;SDS011;66684;47.568;18.734;2024-03-06T09:31:58;33.95;;;22.40;;
51758;SDS011;66684;47.568;18.734;2024-03-06T09:34:24;33.45;;;22.98;;
51758;SDS011;66684;47.568;18.734;2024-03-06T09:36:50;36.47;;;22.25;;
51758;SDS011;66684;47.568;18.734;2024-03-06T09:39:17;31.15;;;22.05;;
51758;SDS011;66684;47.568;18.734;2024-03-06T09:41:46;31.12;;;20.70;;
51758;SDS011;66684;47.568;18.734;2024-03-06T09:44:13;28.85;;;21.02;;
51758;SDS011;66684;47.568;18.734;2024-03-06T09:46:43;25.35;;;16.65;;
51758;SDS011;66684;47.568;18.734;2024-03-06T09:49:14;24.48;;;16.15;;
51758;SDS011;66684;47.568;18.734;2024-03-06T09:51:47;25.83;;;15.77;;
51758;SDS011;66684;47.568;18.734;2024-03-06T09:54:18;25.70;;;17.62;;
51758;SDS011;66684;47.568;18.734;2024-03-06T09:56:45;32.97;;;20.25;;
51758;SDS011;66684;47.568;18.734;2024-03-06T09:59:12;31.85;;;18.75;;
51758;SDS011;66684;47.568;18.734;2024-03-06T10:02:01;31.75;;;19.77;;
51758;SDS011;66684;47.568;18.734;2024-03-06T10:04:32;28.12;;;19.55;;
51758;SDS011;66684;47.568;18.734;2024-03-06T10:06:58;38.28;;;20.92;;
51758;SDS011;66684;47.568;18.734;2024-03-06T10:09:26;32.20;;;21.23;;
51758;SDS011;66684;47.568;18.734;2024-03-06T10:11:53;29.08;;;19.02;;
51758;SDS011;66684;47.568;18.734;2024-03-06T10:14:19;26.83;;;18.67;;
51758;SDS011;66684;47.568;18.734;2024-03-06T10:16:52;29.42;;;18.15;;
51758;SDS011;66684;47.568;18.734;2024-03-06T10:19:19;27.73;;;19.62;;
51758;SDS011;66684;47.568;18.734;2024-03-06T10:21:48;30.33;;;17.30;;
51758;SDS011;66684;47.568;18.734;2024-03-06T10:24:17;32.25;;;18.48;;
51758;SDS011;66684;47.568;18.734;2024-03-06T10:26:44;35.55;;;16.25;;
51758;SDS011;66684;47.568;18.734;2024-03-06T10:29:10;24.35;;;16.75;;
51758;SDS011;66684;47.568;18.734;2024-03-06T10:31:39;29.33;;;16.85;;
51758;SDS011;66684;47.568;18.734;2024-03-06T10:34:05;27.62;;;17.73;;
51758;SDS011;66684;47.568;18.734;2024-03-06T10:36:31;24.90;;;16.45;;
51758;SDS011;66684;47.568;18.734;2024-03-06T10:38:58;26.48;;;17.90;;
51758;SDS011;66684;47.568;18.734;2024-03-06T10:41:27;27.77;;;16.20;;
51758;SDS011;66684;47.568;18.734;2024-03-06T10:43:58;23.85;;;15.30;;
51758;SDS011;66684;47.568;18.734;2024-03-06T10:46:24;19.45;;;12.70;;
51758;SDS011;66684;47.568;18.734;2024-03-06T10:48:53;19.45;;;13.30;;
51758;SDS011;66684;47.568;18.734;2024-03-06T10:51:24;19.87;;;12.63;;
51758;SDS011;66684;47.568;18.734;2024-03-06T10:53:51;17.23;;;10.88;;
51758;SDS011;66684;47.568;18.734;2024-03-06T10:56:19;18.75;;;11.50;;
51758;SDS011;66684;47.568;18.734;2024-03-06T10:58:46;18.27;;;11.00;;
51758;SDS011;66684;47.568;18.734;2024-03-06T11:01:17;23.15;;;11.60;;
51758;SDS011;66684;47.568;18.734;2024-03-06T11:03:44;19.25;;;11.68;;
51758;SDS011;66684;47.568;18.734;2024-03-06T11:06:11;20.20;;;10.88;;
51758;SDS011;66684;47.568;18.734;2024-03-06T11:08:37;18.85;;;11.80;;
51758;SDS011;66684;47.568;18.734;2024-03-06T11:11:19;24.95;;;12.82;;
51758;SDS011;66684;47.568;18.734;2024-03-06T11:16:13;21.58;;;14.68;;
51758;SDS011;66684;47.568;18.734;2024-03-06T11:23:38;23.92;;;16.15;;
51758;SDS011;66684;47.568;18.734;2024-03-06T11:26:52;23.75;;;16.12;;
51758;SDS011;66684;47.568;18.734;2024-03-06T11:29:22;24.63;;;16.00;;
51758;SDS011;66684;47.568;18.734;2024-03-06T11:31:59;27.33;;;16.65;;
51758;SDS011;66684;47.568;18.734;2024-03-06T11:34:35;24.23;;;15.60;;
51758;SDS011;66684;47.568;18.734;2024-03-06T11:37:06;23.50;;;15.48;;
51758;SDS011;66684;47.568;18.734;2024-03-06T11:39:35;26.87;;;15.85;;
51758;SDS011;66684;47.568;18.734;2024-03-06T11:42:02;22.87;;;16.30;;
51758;SDS011;66684;47.568;18.734;2024-03-06T11:44:31;27.35;;;15.90;;
51758;SDS011;66684;47.568;18.734;2024-03-06T11:46:59;25.90;;;16.23;;
51758;SDS011;66684;47.568;18.734;2024-03-06T11:49:29;24.90;;;14.80;;
51758;SDS011;66684;47.568;18.734;2024-03-06T11:52:05;26.00;;;14.55;;
51758;SDS011;66684;47.568;18.734;2024-03-06T11:54:34;21.85;;;14.50;;
51758;SDS011;66684;47.568;18.734;2024-03-06T11:57:01;22.40;;;14.27;;
51758;SDS011;66684;47.568;18.734;2024-03-06T11:59:29;22.85;;;14.35;;
51758;SDS011;66684;47.568;18.734;2024-03-06T12:02:00;22.80;;;13.98;;
51758;SDS011;66684;47.568;18.734;2024-03-06T12:04:27;23.52;;;13.65;;
51758;SDS011;66684;47.568;18.734;2024-03-06T12:06:57;20.70;;;13.68;;
51758;SDS011;66684;47.568;18.734;2024-03-06T12:09:32;31.35;;;15.70;;
51758;SDS011;66684;47.568;18.734;2024-03-06T12:11:58;28.90;;;18.23;;
51758;SDS011;66684;47.568;18.734;2024-03-06T12:14:25;27.80;;;18.48;;
51758;SDS011;66684;47.568;18.734;2024-03-06T12:16:55;33.88;;;18.17;;
51758;SDS011;66684;47.568;18.734;2024-03-06T12:19:22;26.92;;;18.00;;
51758;SDS011;66684;47.568;18.734;2024-03-06T12:21:48;27.52;;;18.92;;
51758;SDS011;66684;47.568;18.734;2024-03-06T12:24:15;23.73;;;16.50;;
51758;SDS011;66684;47.568;18.734;2024-03-06T12:26:44;24.27;;;16.30;;
51758;SDS011;66684;47.568;18.734;2024-03-06T12:29:11;28.85;;;18.60;;
51758;SDS011;66684;47.568;18.734;2024-03-06T12:31:37;27.52;;;17.12;;
51758;SDS011;66684;47.568;18.734;2024-03-06T12:34:07;24.60;;;16.83;;
51758;SDS011;66684;47.568;18.734;2024-03-06T12:36:34;25.92;;;17.15;;
51758;SDS011;66684;47.568;18.734;2024-03-06T12:39:02;27.95;;;17.48;;
51758;SDS011;66684;47.568;18.734;2024-03-06T12:41:29;25.48;;;16.65;;
51758;SDS011;66684;47.568;18.734;2024-03-06T12:43:55;28.10;;;18.70;;
51758;SDS011;66684;47.568;18.734;2024-03-06T12:46:22;31.73;;;20.98;;
51758;SDS011;66684;47.568;18.734;2024-03-06T12:48:50;36.80;;;23.92;;
51758;SDS011;66684;47.568;18.734;2024-03-06T12:51:16;36.47;;;25.05;;
51758;SDS011;66684;47.568;18.734;2024-03-06T12:53:42;35.13;;;23.58;;
51758;SDS011;66684;47.568;18.734;2024-03-06T12:56:08;36.08;;;24.37;;
51758;SDS011;66684;47.568;18.734;2024-03-06T12:58:35;41.35;;;23.75;;
51758;SDS011;66684;47.568;18.734;2024-03-06T13:01:01;32.65;;;23.00;;
51758;SDS011;66684;47.568;18.734;2024-03-06T13:03:27;39.47;;;23.20;;
51758;SDS011;66684;47.568;18.734;2024-03-06T13:05:53;33.55;;;22.62;;
51758;SDS011;66684;47.568;18.734;2024-03-06T13:08:19;36.00;;;23.20;;
51758;SDS011;66684;47.568;18.734;2024-03-06T13:10:45;36.50;;;22.00;;
51758;SDS011;66684;47.568;18.734;2024-03-06T13:13:11;34.42;;;23.05;;
51758;SDS011;66684;47.568;18.734;2024-03-06T13:15:37;35.55;;;22.58;;
51758;SDS011;66684;47.568;18.734;2024-03-06T13:18:03;35.70;;;22.37;;
51758;SDS011;66684;47.568;18.734;2024-03-06T13:20:30;36.42;;;22.37;;
51758;SDS011;66684;47.568;18.734;2024-03-06T13:22:56;32.20;;;21.00;;
51758;SDS011;66684;47.568;18.734;2024-03-06T13:25:22;34.03;;;21.02;;
51758;SDS011;66684;47.568;18.734;2024-03-06T13:27:48;29.05;;;20.17;;
51758;SDS011;66684;47.568;18.734;2024-03-06T13:30:14;32.45;;;20.15;;
51758;SDS011;66684;47.568;18.734;2024-03-06T13:32:41;35.55;;;20.83;;
51758;SDS011;66684;47.568;18.734;2024-03-06T13:35:08;29.17;;;19.98;;
51758;SDS011;66684;47.568;18.734;2024-03-06T13:37:39;29.70;;;19.95;;
51758;SDS011;66684;47.568;18.734;2024-03-06T13:40:06;31.62;;;20.45;;
51758;SDS011;66684;47.568;18.734;2024-03-06T13:42:34;27.75;;;19.02;;
51758;SDS011;66684;47.568;18.734;2024-03-06T13:45:01;29.27;;;17.00;;
51758;SDS011;66684;47.568;18.734;2024-03-06T13:47:27;27.20;;;16.10;;
51758;SDS011;66684;47.568;18.734;2024-03-06T13:49:53;27.05;;;17.23;;
51758;SDS011;66684;47.568;18.734;2024-03-06T13:52:20;27.17;;;16.92;;
51758;SDS011;66684;47.568;18.734;2024-03-06T13:54:46;25.50;;;17.10;;
51758;SDS011;66684;47.568;18.734;2024-03-06T13:57:15;24.55;;;16.98;;
51758;SDS011;66684;47.568;18.734;2024-03-06T13:59:41;29.60;;;17.23;;
51758;SDS011;66684;47.568;18.734;2024-03-06T14:02:08;28.60;;;17.52;;
51758;SDS011;66684;47.568;18.734;2024-03-06T14:04:34;26.95;;;17.30;;
51758;SDS011;66684;47.568;18.734;2024-03-06T14:07:00;29.37;;;17.77;;
51758;SDS011;66684;47.568;18.734;2024-03-06T14:09:26;26.12;;;18.12;;
51758;SDS011;66684;47.568;18.734;2024-03-06T14:11:52;29.80;;;19.48;;
51758;SDS011;66684;47.568;18.734;2024-03-06T14:14:19;29.10;;;18.52;;
51758;SDS011;66684;47.568;18.734;2024-03-06T14:16:46;28.25;;;19.60;;